createdAt,value
2019-04-14T00:02:14.891Z,68.00
2019-04-14T00:04:48.622Z,68.20
2019-04-14T00:07:18.742Z,68.30
2019-04-14T00:09:48.038Z,68.20
2019-04-14T00:12:18.675Z,68.30
2019-04-14T00:14:49.097Z,68.30
2019-04-14T00:17:19.418Z,68.50
2019-04-14T00:19:50.107Z,68.50
2019-04-14T00:22:20.517Z,68.50
2019-04-14T00:24:51.005Z,68.70
2019-04-14T00:27:21.451Z,68.80
2019-04-14T00:29:50.747Z,68.80
2019-04-14T00:32:20.523Z,68.90
2019-04-14T00:35:08.430Z,68.90
2019-04-14T00:37:46.631Z,68.90
2019-04-14T00:40:29.617Z,68.90
2019-04-14T00:43:11.910Z,69.00
2019-04-14T00:46:01.383Z,69.10
2019-04-14T00:48:32.021Z,69.10
2019-04-14T00:51:02.668Z,69.20
2019-04-14T00:53:32.115Z,69.10
2019-04-14T00:56:01.992Z,68.90
2019-04-14T00:58:32.204Z,69.20
2019-04-14T01:01:02.698Z,69.30
2019-04-14T01:03:33.054Z,69.50
2019-04-14T01:06:03.186Z,69.60
2019-04-14T01:08:33.450Z,69.80
2019-04-14T01:11:03.137Z,69.90
2019-04-14T01:13:33.282Z,70.10
2019-04-14T01:16:08.929Z,70.10
2019-04-14T01:18:34.061Z,70.20
2019-04-14T01:21:04.594Z,70.30
2019-04-14T01:23:34.798Z,70.60
2019-04-14T01:26:05.051Z,70.70
2019-04-14T01:28:35.440Z,70.70
2019-04-14T01:31:05.503Z,70.90
2019-04-14T01:33:35.836Z,70.70
2019-04-14T01:36:06.103Z,70.60
2019-04-14T01:38:36.452Z,70.40
2019-04-14T01:41:06.439Z,70.10
2019-04-14T01:43:36.415Z,69.80
2019-04-14T01:46:14.396Z,69.60
2019-04-14T01:48:36.809Z,69.30
2019-04-14T01:51:25.101Z,69.20
2019-04-14T01:54:17.092Z,69.20
2019-04-14T01:56:58.218Z,69.10
2019-04-14T01:59:28.360Z,68.80
2019-04-14T02:01:58.682Z,68.60
2019-04-14T02:04:28.835Z,68.10
2019-04-14T02:06:59.191Z,67.90
2019-04-14T02:09:29.488Z,67.70
2019-04-14T02:11:59.510Z,67.60
2019-04-14T02:14:30.037Z,67.30
2019-04-14T02:17:02.535Z,67.10
2019-04-14T02:19:30.662Z,66.80
2019-04-14T02:22:00.676Z,66.60
2019-04-14T02:24:30.979Z,66.60
2019-04-14T02:27:01.265Z,66.50
2019-04-14T02:29:31.905Z,66.40
2019-04-14T02:32:37.271Z,66.40
2019-04-14T02:35:00.229Z,66.40
2019-04-14T02:37:31.879Z,66.30
2019-04-14T02:40:00.774Z,66.10
2019-04-14T02:42:36.668Z,66.00
2019-04-14T02:45:00.226Z,65.70
2019-04-14T02:50:17.604Z,65.10
2019-04-14T02:52:47.292Z,64.90
2019-04-14T02:55:04.495Z,64.90
2019-04-14T03:00:11.614Z,64.70
2019-04-14T03:02:38.900Z,64.50
2019-04-14T03:10:12.582Z,63.80
2019-04-14T03:12:48.805Z,63.60
2019-04-14T03:15:16.464Z,63.70
2019-04-14T03:23:33.147Z,63.50
2019-04-14T03:26:05.065Z,63.30
2019-04-14T03:28:40.278Z,63.20
2019-04-14T03:36:44.630Z,62.90
2019-04-14T03:38:53.312Z,62.80
2019-04-14T03:43:41.565Z,62.60
2019-04-14T03:56:33.465Z,62.20
2019-04-14T03:59:04.119Z,62.20
2019-04-14T04:01:34.538Z,62.10
2019-04-14T04:04:05.257Z,62.00
2019-04-14T04:06:35.593Z,61.80
2019-04-14T04:09:06.384Z,61.80
2019-04-14T04:11:36.645Z,61.70
2019-04-14T04:14:07.327Z,61.70
2019-04-14T04:16:52.908Z,61.60
2019-04-14T04:19:27.719Z,61.60
2019-04-14T04:22:15.046Z,61.50
2019-04-14T04:24:50.000Z,60.80
2019-04-14T04:27:56.913Z,61.30
2019-04-14T04:30:45.263Z,61.40
2019-04-14T04:33:19.887Z,61.40
2019-04-14T04:35:52.879Z,61.40
2019-04-14T04:38:29.439Z,61.30
2019-04-14T04:40:59.405Z,61.20
2019-04-14T04:43:29.759Z,61.10
2019-04-14T04:45:59.099Z,61.00
2019-04-14T04:48:28.554Z,61.00
2019-04-14T04:50:58.584Z,60.90
2019-04-14T04:53:28.783Z,60.90
2019-04-14T04:55:59.313Z,60.90
2019-04-14T04:58:30.510Z,60.80
2019-04-14T05:01:01.298Z,60.70
2019-04-14T05:03:31.823Z,60.50
2019-04-14T05:06:50.520Z,60.40
2019-04-14T05:09:29.572Z,60.30
2019-04-14T05:12:13.249Z,60.10
2019-04-14T05:14:47.946Z,59.90
2019-04-14T05:17:19.092Z,59.80
2019-04-14T05:19:49.652Z,59.60
2019-04-14T05:22:20.735Z,59.40
2019-04-14T05:24:50.772Z,59.30
2019-04-14T05:27:21.081Z,59.10
2019-04-14T05:29:51.478Z,59.00
2019-04-14T05:32:21.613Z,58.80
2019-04-14T05:34:52.103Z,58.50
2019-04-14T05:37:22.495Z,58.30
2019-04-14T05:39:52.692Z,58.20
2019-04-14T05:42:25.331Z,58.00
2019-04-14T05:44:53.591Z,57.90
2019-04-14T05:47:23.829Z,57.60
2019-04-14T05:49:56.118Z,57.50
2019-04-14T05:52:25.184Z,57.30
2019-04-14T05:54:55.701Z,57.10
2019-04-14T05:57:26.226Z,56.90
2019-04-14T05:59:56.931Z,56.60
2019-04-14T06:02:28.884Z,56.40
2019-04-14T06:04:57.382Z,56.30
2019-04-14T06:07:26.689Z,56.30
2019-04-14T06:09:56.054Z,56.10
2019-04-14T06:12:25.266Z,55.90
2019-04-14T06:14:54.637Z,55.80
2019-04-14T06:17:24.121Z,55.60
2019-04-14T06:19:53.429Z,55.30
2019-04-14T06:22:22.709Z,55.20
2019-04-14T06:24:51.977Z,54.90
2019-04-14T06:27:22.131Z,54.70
2019-04-14T06:29:53.437Z,54.60
2019-04-14T06:32:41.787Z,54.50
2019-04-14T06:35:29.041Z,54.40
2019-04-14T06:38:01.161Z,54.40
2019-04-14T06:40:52.329Z,54.30
2019-04-14T06:43:21.632Z,54.30
2019-04-14T06:45:50.893Z,54.10
2019-04-14T06:48:20.288Z,54.00
2019-04-14T06:50:49.589Z,53.90
2019-04-14T06:53:18.944Z,53.70
2019-04-14T06:55:48.207Z,53.50
2019-04-14T06:58:17.670Z,53.30
2019-04-14T07:00:47.337Z,53.20
2019-04-14T07:03:16.628Z,53.10
2019-04-14T07:05:45.993Z,53.00
2019-04-14T07:08:15.321Z,53.00
2019-04-14T07:10:44.648Z,52.80
2019-04-14T07:13:14.112Z,52.60
2019-04-14T07:15:43.477Z,52.30
2019-04-14T07:18:13.096Z,52.10
2019-04-14T07:20:42.400Z,52.10
2019-04-14T07:23:11.660Z,52.00
2019-04-14T07:25:41.091Z,51.80
2019-04-14T07:28:10.528Z,51.30
2019-04-14T07:31:03.914Z,51.50
2019-04-14T07:33:45.900Z,51.40
2019-04-14T07:36:26.864Z,51.30
2019-04-14T07:39:07.603Z,51.10
2019-04-14T07:41:43.796Z,51.10
2019-04-14T07:44:31.836Z,51.00
2019-04-14T07:47:10.652Z,50.90
2019-04-14T07:50:14.511Z,50.80
2019-04-14T07:53:16.493Z,50.80
2019-04-14T07:55:59.935Z,50.60
2019-04-14T07:58:51.291Z,50.30
2019-04-14T08:01:27.505Z,50.00
2019-04-14T08:04:33.983Z,49.80
2019-04-14T08:07:03.253Z,49.60
2019-04-14T08:09:32.632Z,49.40
2019-04-14T08:12:02.032Z,49.10
2019-04-14T08:14:31.311Z,48.90
2019-04-14T08:17:00.639Z,48.70
2019-04-14T08:19:29.939Z,48.60
2019-04-14T08:21:59.291Z,48.50
2019-04-14T08:24:28.602Z,48.20
2019-04-14T08:26:57.927Z,47.80
2019-04-14T08:29:27.235Z,47.60
2019-04-14T08:31:56.728Z,47.40
2019-04-14T08:34:25.983Z,47.20
2019-04-14T08:36:55.280Z,47.00
2019-04-14T08:39:24.647Z,46.80
2019-04-14T08:42:05.461Z,46.40
2019-04-14T08:44:40.559Z,46.30
2019-04-14T08:47:44.002Z,46.30
2019-04-14T08:50:39.385Z,46.30
2019-04-14T08:53:12.923Z,46.20
2019-04-14T08:55:54.858Z,46.00
2019-04-14T08:58:40.178Z,45.70
2019-04-14T09:01:17.570Z,45.50
2019-04-14T09:03:59.451Z,45.40
2019-04-14T09:06:56.938Z,45.50
2019-04-14T09:09:51.246Z,45.50
2019-04-14T09:12:29.250Z,45.50
2019-04-14T09:14:58.603Z,45.50
2019-04-14T09:17:29.682Z,45.30
2019-04-14T09:19:58.946Z,44.90
2019-04-14T09:22:28.253Z,44.60
2019-04-14T09:24:57.641Z,44.30
2019-04-14T09:27:27.218Z,44.30
2019-04-14T09:29:56.505Z,44.10
2019-04-14T09:32:26.778Z,44.00
2019-04-14T09:34:56.513Z,44.00
2019-04-14T09:37:25.805Z,44.00
2019-04-14T09:39:55.068Z,43.90
2019-04-14T09:42:24.452Z,43.90
2019-04-14T09:44:53.733Z,43.90
2019-04-14T09:47:23.002Z,43.80
2019-04-14T09:49:52.390Z,43.60
2019-04-14T09:52:21.581Z,43.60
2019-04-14T09:54:50.874Z,43.40
2019-04-14T09:57:20.337Z,43.20
2019-04-14T09:59:50.581Z,43.20
2019-04-14T10:02:19.865Z,43.40
2019-04-14T10:04:49.253Z,43.50
2019-04-14T10:07:18.595Z,43.60
2019-04-14T10:09:47.981Z,43.60
2019-04-14T10:12:17.681Z,43.80
2019-04-14T10:14:46.962Z,43.60
2019-04-14T10:17:16.293Z,43.30
2019-04-14T10:19:45.629Z,43.20
2019-04-14T10:22:14.965Z,43.00
2019-04-14T10:24:44.253Z,42.80
2019-04-14T10:27:14.408Z,42.80
2019-04-14T10:29:43.732Z,42.80
2019-04-14T10:32:13.044Z,42.80
2019-04-14T10:34:42.605Z,43.00
2019-04-14T10:37:11.921Z,43.00
2019-04-14T10:39:41.341Z,43.00
2019-04-14T10:42:10.620Z,43.20
2019-04-14T10:44:40.127Z,43.00
2019-04-14T10:47:09.420Z,42.60
2019-04-14T10:49:38.816Z,42.30
2019-04-14T10:52:08.173Z,41.80
2019-04-14T10:54:37.546Z,41.30
2019-04-14T10:57:06.972Z,40.90
2019-04-14T10:59:36.233Z,40.70
2019-04-14T11:02:05.696Z,40.30
2019-04-14T11:04:34.968Z,39.70
2019-04-14T11:07:14.345Z,39.10
2019-04-14T11:09:43.648Z,38.30
2019-04-14T11:12:12.984Z,37.60
2019-04-14T11:14:42.289Z,36.80
2019-04-14T11:17:11.584Z,36.20
2019-04-14T11:19:41.040Z,35.60
2019-04-14T11:22:10.444Z,35.10
2019-04-14T11:24:39.773Z,35.50
2019-04-14T11:27:09.379Z,34.60
2019-04-14T11:29:38.720Z,34.50
2019-04-14T11:32:36.136Z,34.20
2019-04-14T11:35:19.754Z,33.80
2019-04-14T11:37:57.996Z,33.60
2019-04-14T11:40:30.816Z,33.60
2019-04-14T11:43:00.139Z,33.30
2019-04-14T11:45:29.521Z,33.20
2019-04-14T11:47:58.865Z,33.20
2019-04-14T11:50:28.264Z,33.00
2019-04-14T11:52:57.542Z,32.60
2019-04-14T11:55:26.904Z,32.30
2019-04-14T11:57:56.319Z,31.80
2019-04-14T12:00:53.968Z,31.30
2019-04-14T12:03:39.259Z,30.80
2019-04-14T12:06:23.541Z,30.70
2019-04-14T12:08:58.168Z,29.90
2019-04-14T12:11:27.559Z,29.50
2019-04-14T12:13:56.983Z,29.00
2019-04-14T12:16:26.341Z,28.60
2019-04-14T12:18:55.611Z,28.10
2019-04-14T12:21:24.990Z,28.10
2019-04-14T12:23:54.656Z,27.20
2019-04-14T12:26:24.059Z,26.90
2019-04-14T12:28:53.700Z,26.60
2019-04-14T12:31:24.111Z,26.30
2019-04-14T12:33:53.955Z,26.10
2019-04-14T12:36:23.328Z,25.90
2019-04-14T12:38:52.594Z,25.80
2019-04-14T12:41:31.087Z,25.50
2019-04-14T12:44:30.179Z,25.30
2019-04-14T12:47:09.387Z,25.20
2019-04-14T12:49:41.166Z,24.90
2019-04-14T12:52:22.211Z,24.50
2019-04-14T12:54:51.503Z,24.30
2019-04-14T12:57:32.249Z,24.20
2019-04-14T13:00:01.623Z,24.00
2019-04-14T13:02:34.299Z,23.80
2019-04-14T13:05:04.220Z,23.70
2019-04-14T13:07:33.615Z,23.40
2019-04-14T13:10:02.966Z,23.20
2019-04-14T13:12:32.338Z,23.10
2019-04-14T13:15:02.948Z,22.90
2019-04-14T13:17:32.439Z,22.70
2019-04-14T13:20:01.770Z,22.60
2019-04-14T13:22:34.159Z,22.50
2019-04-14T13:25:02.478Z,22.20
2019-04-14T13:27:31.822Z,22.00
2019-04-14T13:30:01.205Z,21.80
2019-04-14T13:32:36.275Z,21.70
2019-04-14T13:35:01.610Z,21.70
2019-04-14T13:37:30.912Z,21.70
2019-04-14T13:40:00.217Z,21.70
2019-04-14T13:42:29.577Z,21.60
2019-04-14T13:44:58.875Z,21.50
2019-04-14T13:47:28.260Z,21.20
2019-04-14T13:49:57.682Z,21.10
2019-04-14T13:52:27.026Z,21.10
2019-04-14T13:54:56.390Z,20.90
2019-04-14T13:57:25.805Z,20.90
2019-04-14T13:59:55.089Z,21.00
2019-04-14T14:02:24.505Z,20.90
2019-04-14T14:04:54.018Z,20.60
2019-04-14T14:07:23.362Z,20.70
2019-04-14T14:09:52.690Z,21.00
2019-04-14T14:12:29.625Z,21.50
2019-04-14T14:15:24.605Z,21.70
2019-04-14T14:18:12.914Z,21.70
2019-04-14T14:20:59.632Z,21.60
2019-04-14T14:23:56.612Z,21.40
2019-04-14T14:26:27.336Z,21.10
2019-04-14T14:28:56.726Z,21.10
2019-04-14T14:31:26.136Z,21.00
2019-04-14T14:33:55.440Z,21.00
2019-04-14T14:36:24.822Z,21.00
2019-04-14T14:38:54.196Z,21.00
2019-04-14T14:41:23.492Z,21.10
2019-04-14T14:43:52.859Z,21.00
2019-04-14T14:46:37.081Z,21.00
2019-04-14T14:49:24.328Z,21.10
2019-04-14T14:52:03.964Z,21.20
2019-04-14T14:54:33.257Z,21.30
2019-04-14T14:57:02.657Z,21.30
2019-04-14T14:59:31.937Z,21.20
2019-04-14T15:02:01.288Z,21.20
2019-04-14T15:04:30.618Z,21.20
2019-04-14T15:06:59.993Z,21.20
2019-04-14T15:09:29.388Z,21.10
2019-04-14T15:11:58.785Z,21.20
2019-04-14T15:14:28.176Z,21.20
2019-04-14T15:16:57.676Z,21.10
2019-04-14T15:19:27.029Z,21.10
2019-04-14T15:21:56.340Z,21.20
2019-04-14T15:24:25.714Z,21.20
2019-04-14T15:26:55.021Z,21.60
2019-04-14T15:29:24.335Z,21.20
2019-04-14T15:31:53.724Z,21.20
2019-04-14T15:34:23.216Z,21.20
2019-04-14T15:36:52.524Z,21.20
2019-04-14T15:39:21.895Z,21.10
2019-04-14T15:41:51.227Z,21.10
2019-04-14T15:44:20.672Z,21.70
2019-04-14T15:46:50.048Z,21.20
2019-04-14T15:49:19.352Z,21.40
2019-04-14T15:51:48.949Z,21.50
2019-04-14T15:54:19.827Z,21.80
2019-04-14T15:57:03.731Z,22.10
2019-04-14T16:00:09.052Z,22.40
2019-04-14T16:03:01.767Z,22.80
2019-04-14T16:05:43.064Z,23.20
2019-04-14T16:08:22.700Z,23.40
2019-04-14T16:10:55.475Z,23.60
2019-04-14T16:13:44.264Z,23.80
2019-04-14T16:16:38.760Z,24.00
2019-04-14T16:19:13.267Z,24.10
2019-04-14T16:21:42.571Z,24.10
2019-04-14T16:24:11.939Z,24.00
2019-04-14T16:26:46.687Z,24.00
2019-04-14T16:29:30.023Z,23.90
2019-04-14T16:32:08.135Z,23.90
2019-04-14T16:34:50.211Z,23.90
2019-04-14T16:37:19.571Z,24.20
2019-04-14T16:39:48.958Z,24.60
2019-04-14T16:42:18.328Z,25.00
2019-04-14T16:44:47.627Z,25.40
2019-04-14T16:47:16.881Z,25.80
2019-04-14T16:49:46.199Z,26.10
2019-04-14T16:52:33.251Z,26.40
2019-04-14T16:55:29.675Z,26.60
2019-04-14T16:58:19.971Z,26.80
2019-04-14T17:01:14.351Z,27.00
2019-04-14T17:03:43.907Z,27.20
2019-04-14T17:06:13.111Z,27.50
2019-04-14T17:08:42.515Z,27.70
2019-04-14T17:11:11.771Z,28.00
2019-04-14T17:13:43.634Z,28.20
2019-04-14T17:16:30.931Z,28.50
2019-04-14T17:19:19.400Z,28.70
2019-04-14T17:21:55.803Z,28.90
2019-04-14T17:24:56.557Z,29.60
2019-04-14T17:27:37.707Z,29.40
2019-04-14T17:30:15.208Z,29.70
2019-04-14T17:33:03.582Z,30.70
2019-04-14T17:35:50.728Z,30.40
2019-04-14T17:38:35.206Z,30.70
2019-04-14T17:41:11.930Z,31.10
2019-04-14T17:44:03.194Z,31.40
2019-04-14T17:46:50.246Z,31.70
2019-04-14T17:49:44.569Z,32.00
2019-04-14T17:52:31.822Z,32.20
2019-04-14T17:55:05.733Z,32.30
2019-04-14T17:57:52.417Z,32.50
2019-04-14T18:00:30.581Z,32.70
2019-04-14T18:03:15.721Z,33.60
2019-04-14T18:05:51.394Z,33.20
2019-04-14T18:08:42.530Z,33.90
2019-04-14T18:11:30.889Z,33.70
2019-04-14T18:14:19.185Z,34.00
2019-04-14T18:17:15.653Z,34.10
2019-04-14T18:19:51.704Z,34.30
2019-04-14T18:22:21.009Z,34.50
2019-04-14T18:24:50.366Z,34.70
2019-04-14T18:27:19.773Z,34.90
2019-04-14T18:29:57.855Z,35.10
2019-04-14T18:32:55.057Z,35.20
2019-04-14T18:35:48.917Z,35.30
2019-04-14T18:38:36.045Z,35.50
2019-04-14T18:41:12.057Z,35.60
2019-04-14T18:43:48.119Z,35.80
2019-04-14T18:46:34.865Z,35.90
2019-04-14T18:49:13.092Z,36.10
2019-04-14T18:51:56.929Z,36.20
2019-04-14T18:54:32.368Z,36.40
2019-04-14T18:57:15.288Z,36.60
2019-04-14T18:59:49.268Z,36.70
2019-04-14T19:02:19.997Z,36.90
2019-04-14T19:04:49.304Z,37.00
2019-04-14T19:07:21.099Z,37.10
2019-04-14T19:09:50.408Z,37.10
2019-04-14T19:12:37.312Z,37.30
2019-04-14T19:15:16.013Z,37.40
2019-04-14T19:17:55.020Z,37.40
2019-04-14T19:20:24.294Z,37.60
2019-04-14T19:22:53.679Z,37.70
2019-04-14T19:25:23.059Z,37.90
2019-04-14T19:27:52.460Z,38.00
2019-04-14T19:30:21.899Z,38.10
2019-04-14T19:32:51.235Z,38.30
2019-04-14T19:35:20.538Z,38.40
2019-04-14T19:37:49.782Z,38.50
2019-04-14T19:40:19.162Z,38.70
2019-04-14T19:42:48.440Z,38.80
2019-04-14T19:45:17.702Z,38.90
2019-04-14T19:47:49.057Z,39.10
2019-04-14T19:50:18.311Z,39.30
2019-04-14T19:52:47.694Z,39.40
2019-04-14T19:55:20.640Z,39.60
2019-04-14T19:57:47.868Z,39.70
2019-04-14T20:00:17.469Z,39.90
2019-04-14T20:02:46.846Z,40.00
2019-04-14T20:05:16.134Z,40.20
2019-04-14T20:07:45.538Z,40.30
2019-04-14T20:10:15.172Z,40.50
2019-04-14T20:12:44.436Z,40.60
2019-04-14T20:15:16.791Z,40.70
2019-04-14T20:18:14.413Z,40.90
2019-04-14T20:20:56.758Z,41.00
2019-04-14T20:23:42.887Z,41.20
2019-04-14T20:26:29.907Z,42.00
2019-04-14T20:29:06.623Z,41.40
2019-04-14T20:31:41.063Z,41.60
2019-04-14T20:34:10.459Z,41.70
2019-04-14T20:36:39.859Z,41.90
2019-04-14T20:39:13.263Z,42.10
2019-04-14T20:41:44.389Z,42.20
2019-04-14T20:44:14.010Z,42.40
2019-04-14T20:46:43.319Z,42.50
2019-04-14T20:49:12.667Z,42.60
2019-04-14T20:51:42.955Z,43.00
2019-04-14T20:54:12.323Z,43.00
2019-04-14T20:56:41.743Z,43.20
2019-04-14T20:59:11.114Z,43.40
2019-04-14T21:01:44.214Z,43.50
2019-04-14T21:04:33.070Z,43.70
2019-04-14T21:07:21.430Z,43.80
2019-04-14T21:10:07.879Z,44.00
2019-04-14T21:13:08.490Z,44.10
2019-04-14T21:15:47.254Z,44.20
2019-04-14T21:18:38.400Z,44.30
2019-04-14T21:21:38.962Z,44.00
2019-04-14T21:24:31.542Z,44.60
2019-04-14T21:27:37.882Z,44.80
2019-04-14T21:30:25.006Z,45.00
2019-04-14T21:33:19.270Z,45.10
2019-04-14T21:35:52.534Z,45.30
2019-04-14T21:38:39.894Z,45.50
2019-04-14T21:41:29.584Z,45.70
2019-04-14T21:43:58.958Z,45.80
2019-04-14T21:46:28.414Z,46.00
2019-04-14T21:48:57.780Z,46.90
2019-04-14T21:51:46.134Z,46.40
2019-04-14T21:54:15.826Z,46.70
2019-04-14T21:56:46.734Z,46.80
2019-04-14T21:59:21.126Z,46.90
2019-04-14T22:02:24.674Z,47.10
2019-04-14T22:05:12.169Z,47.10
2019-04-14T22:07:46.525Z,47.30
2019-04-14T23:35:31.615Z,52.00
2019-04-14T23:38:00.931Z,52.60
2019-04-14T23:40:30.253Z,52.70
2019-04-14T23:42:59.522Z,52.80
2019-04-14T23:45:29.572Z,53.10
2019-04-14T23:47:58.836Z,53.20
2019-04-14T23:50:28.142Z,54.00
2019-04-14T23:52:57.395Z,53.40
2019-04-14T23:55:26.630Z,53.50
2019-04-14T23:57:55.920Z,53.60
